createdAt,value
2023-01-30T00:02:12.766Z,99706.23
2023-01-30T00:04:43.055Z,99704.67
2023-01-30T00:07:11.550Z,99709.37
2023-01-30T00:09:44.128Z,99712.73
2023-01-30T00:12:14.414Z,99710.17
2023-01-30T00:14:43.092Z,99705.98
2023-01-30T00:17:11.389Z,99703.52
2023-01-30T00:19:42.430Z,99700.13
2023-01-30T00:22:10.408Z,99693.46
2023-01-30T00:24:44.170Z,99691.42
2023-01-30T00:27:12.361Z,99688.55
2023-01-30T00:29:40.660Z,99682.20
2023-01-30T00:32:13.597Z,99680.77
2023-01-30T00:34:41.761Z,99681.33
2023-01-30T00:37:09.976Z,99684.34
2023-01-30T00:39:37.990Z,99675.29
2023-01-30T00:42:24.684Z,99675.65
2023-01-30T00:45:12.857Z,99674.71
2023-01-30T00:47:41.596Z,99669.70
2023-01-30T00:50:10.116Z,99673.66
2023-01-30T00:52:38.875Z,99670.09
2023-01-30T00:55:07.816Z,99663.10
2023-01-30T00:57:35.837Z,99654.02
2023-01-30T01:00:05.595Z,99654.34
2023-01-30T01:02:33.840Z,99648.30
2023-01-30T01:05:02.034Z,99639.14
2023-01-30T01:07:31.060Z,99635.02
2023-01-30T01:10:00.625Z,99639.09
2023-01-30T01:12:28.824Z,99630.90
2023-01-30T01:14:57.262Z,99628.06
2023-01-30T01:17:25.668Z,99630.86
2023-01-30T01:19:53.810Z,99628.73
2023-01-30T01:22:21.985Z,99631.23
2023-01-30T01:24:50.070Z,99626.62
2023-01-30T01:27:19.634Z,99619.73
2023-01-30T01:29:47.560Z,99620.13
2023-01-30T01:32:17.158Z,99615.86
2023-01-30T01:34:45.584Z,99615.88
2023-01-30T01:37:13.850Z,99615.71
2023-01-30T01:40:02.916Z,99613.89
2023-01-30T01:42:34.467Z,99613.10
2023-01-30T01:45:11.647Z,99615.70
2023-01-30T01:47:53.723Z,99621.73
2023-01-30T01:50:25.575Z,99620.45
2023-01-30T04:02:45.883Z,99484.45
2023-01-30T04:05:14.425Z,99478.92
2023-01-30T04:07:44.277Z,99478.42
2023-01-30T04:10:14.664Z,99478.33
2023-01-30T04:12:42.420Z,99478.00
2023-01-30T04:15:10.197Z,99480.55
2023-01-30T04:17:55.032Z,99474.08
2023-01-30T04:20:42.591Z,99472.85
2023-01-30T04:23:10.262Z,99474.98
2023-01-30T04:25:37.043Z,99475.92
2023-01-30T04:28:07.429Z,99479.55
2023-01-30T04:30:36.979Z,99475.52
2023-01-30T04:33:39.526Z,99476.90
2023-01-30T04:36:08.218Z,99478.80
2023-01-30T04:38:35.507Z,99474.61
2023-01-30T04:41:04.216Z,99473.39
2023-01-30T04:43:32.297Z,99474.64
2023-01-30T04:46:21.860Z,99469.71
2023-01-30T04:48:49.159Z,99468.19
2023-01-30T04:51:16.087Z,99462.45
2023-01-30T04:53:43.116Z,99460.20
2023-01-30T04:56:10.943Z,99465.90
2023-01-30T04:58:38.049Z,99463.07
2023-01-30T05:01:24.868Z,99459.29
2023-01-30T05:03:55.214Z,99456.54
2023-01-30T05:06:22.621Z,99451.73
2023-01-30T05:08:52.669Z,99448.73
2023-01-30T05:11:19.789Z,99445.79
2023-01-30T05:13:46.777Z,99442.21
2023-01-30T05:16:14.401Z,99439.00
2023-01-30T05:18:41.640Z,99441.34
2023-01-30T05:21:13.624Z,99435.11
2023-01-30T05:23:41.169Z,99437.55
2023-01-30T05:26:07.885Z,99431.55
2023-01-30T05:28:35.053Z,99431.67
2023-01-30T05:31:07.511Z,99428.07
2023-01-30T05:33:34.355Z,99434.95
2023-01-30T05:36:01.720Z,99429.63
2023-01-30T05:38:29.234Z,99426.84
2023-01-30T05:41:00.588Z,99421.03
2023-01-30T05:43:27.405Z,99413.85
2023-01-30T05:45:56.597Z,99408.53
2023-01-30T05:48:23.389Z,99411.55
2023-01-30T05:50:54.795Z,99402.98
2023-01-30T05:53:26.053Z,99400.92
2023-01-30T05:55:57.192Z,99393.73
2023-01-30T05:58:24.090Z,99398.39
2023-01-30T06:00:50.768Z,99392.92
2023-01-30T06:07:22.778Z,99393.70
2023-01-30T06:09:51.248Z,99391.11
2023-01-30T06:12:19.664Z,99391.31
2023-01-30T06:14:46.351Z,99387.95
2023-01-30T06:17:14.062Z,99387.80
2023-01-30T06:19:41.200Z,99383.20
2023-01-30T06:22:07.800Z,99374.66
2023-01-30T06:24:34.463Z,99375.69
2023-01-30T06:27:01.102Z,99372.98
2023-01-30T06:29:30.151Z,99373.93
2023-01-30T06:31:57.108Z,99370.63
2023-01-30T06:34:23.722Z,99364.84
2023-01-30T06:36:51.012Z,99364.80
2023-01-30T06:39:18.659Z,99360.70
2023-01-30T06:41:45.337Z,99361.14
2023-01-30T06:44:12.332Z,99359.46
2023-01-30T06:46:39.563Z,99355.77
2023-01-30T06:49:06.440Z,99359.91
2023-01-30T06:51:33.220Z,99355.74
2023-01-30T06:53:59.955Z,99352.59
2023-01-30T06:56:27.351Z,99349.52
2023-01-30T06:58:54.566Z,99343.59
2023-01-30T07:01:21.269Z,99343.27
2023-01-30T07:03:48.121Z,99340.14
2023-01-30T07:06:14.810Z,99345.31
2023-01-30T07:08:43.845Z,99344.70
2023-01-30T07:11:10.456Z,99342.44
2023-01-30T07:13:37.061Z,99346.88
2023-01-30T07:16:03.903Z,99343.46
2023-01-30T07:18:32.288Z,99342.27
2023-01-30T07:20:59.059Z,99347.30
2023-01-30T07:23:25.894Z,99344.66
2023-01-30T07:25:52.680Z,99342.31
2023-01-30T07:28:19.630Z,99341.61
2023-01-30T07:30:47.267Z,99335.42
2023-01-30T07:33:13.953Z,99327.88
2023-01-30T07:35:40.626Z,99331.10
2023-01-30T07:38:07.551Z,99323.54
2023-01-30T07:40:34.225Z,99325.38
2023-01-30T07:43:05.245Z,99320.04
2023-01-30T07:45:39.673Z,99309.89
2023-01-30T07:48:07.413Z,99304.13
2023-01-30T07:50:37.231Z,99308.13
2023-01-30T07:53:04.953Z,99305.48
2023-01-30T07:55:31.928Z,99295.13
2023-01-30T07:57:59.580Z,99291.96
2023-01-30T08:00:26.700Z,99289.02
2023-01-30T08:02:53.316Z,99280.86
2023-01-30T08:05:19.968Z,99277.25
2023-01-30T08:07:47.562Z,99274.61
2023-01-30T08:10:17.584Z,99264.81
2023-01-30T08:12:46.079Z,99265.42
2023-01-30T08:15:13.383Z,99269.80
2023-01-30T08:17:40.269Z,99266.38
2023-01-30T08:20:08.274Z,99259.20
2023-01-30T08:22:34.950Z,99260.81
2023-01-30T08:25:01.954Z,99255.73
2023-01-30T08:27:28.768Z,99247.99
2023-01-30T08:29:56.587Z,99242.70
2023-01-30T08:32:23.225Z,99239.21
2023-01-30T08:34:51.251Z,99230.49
2023-01-30T08:37:18.108Z,99230.66
2023-01-30T08:39:45.088Z,99223.90
2023-01-30T08:42:12.823Z,99220.63
2023-01-30T08:44:39.716Z,99225.16
2023-01-30T08:47:06.445Z,99224.92
2023-01-30T08:49:36.623Z,99225.27
2023-01-30T08:52:03.328Z,99215.83
2023-01-30T08:54:31.807Z,99204.98
2023-01-30T08:56:59.860Z,99206.66
2023-01-30T08:59:28.257Z,99207.94
2023-01-30T09:01:54.802Z,99204.21
2023-01-30T09:04:24.267Z,99198.39
2023-01-30T09:06:54.554Z,99195.69
2023-01-30T09:09:21.151Z,99186.73
2023-01-30T09:11:48.778Z,99188.41
2023-01-30T09:14:19.195Z,99172.30
2023-01-30T09:16:47.528Z,99171.01
2023-01-30T09:19:14.124Z,99167.27
2023-01-30T09:21:40.808Z,99163.84
2023-01-30T09:24:07.666Z,99160.42
2023-01-30T09:26:34.636Z,99152.30
2023-01-30T09:29:01.453Z,99153.84
2023-01-30T09:31:28.499Z,99150.79
2023-01-30T09:33:55.320Z,99147.95
2023-01-30T09:36:22.275Z,99139.45
2023-01-30T09:38:48.893Z,99138.05
2023-01-30T09:41:58.295Z,99142.19
2023-01-30T09:45:02.021Z,99137.37
2023-01-30T13:47:58.310Z,98790.38
2023-01-30T13:50:35.021Z,98788.34
2023-01-30T13:53:18.830Z,98769.64
2023-01-30T13:55:48.515Z,98760.84
2023-01-30T13:58:50.355Z,98761.82
2023-01-30T14:01:19.443Z,98759.85
2023-01-30T14:03:47.840Z,98755.46
2023-01-30T14:06:31.671Z,98757.84
2023-01-30T14:09:01.582Z,98757.35
2023-01-30T14:11:36.543Z,98757.11
2023-01-30T14:14:49.200Z,98751.65
2023-01-30T14:17:18.112Z,98743.21
2023-01-30T14:19:58.690Z,98742.76
2023-01-30T14:22:47.255Z,98734.52
2023-01-30T14:25:31.170Z,98729.23
2023-01-30T14:28:05.786Z,98724.89
2023-01-30T14:30:38.497Z,98726.99
2023-01-30T14:33:21.877Z,98731.41
2023-01-30T14:36:02.560Z,98724.08
2023-01-30T14:38:32.179Z,98720.79
2023-01-30T14:41:00.287Z,98720.95
2023-01-30T14:43:38.453Z,98719.15
2023-01-30T14:46:19.021Z,98714.66
2023-01-30T14:49:04.683Z,98711.94
2023-01-30T14:51:40.013Z,98725.80
2023-01-30T14:54:13.691Z,98721.70
2023-01-30T14:56:56.777Z,98715.12
2023-01-30T14:59:30.924Z,98708.73
2023-01-30T15:02:12.973Z,98705.76
2023-01-30T15:05:06.807Z,98702.44
2023-01-30T15:07:46.346Z,98703.04
2023-01-30T15:10:25.669Z,98706.02
2023-01-30T15:13:13.610Z,98704.73
2023-01-30T15:15:54.056Z,98704.73
2023-01-30T15:19:10.206Z,98701.63
2023-01-30T15:22:10.349Z,98703.33
2023-01-30T15:25:11.026Z,98709.58
2023-01-30T15:27:42.120Z,98699.64
2023-01-30T15:30:35.123Z,98691.89
2023-01-30T15:33:29.777Z,98693.42
2023-01-30T15:35:59.423Z,98687.58
2023-01-30T15:38:34.238Z,98689.63
2023-01-30T15:41:04.388Z,98698.89
2023-01-30T15:44:05.962Z,98697.08
2023-01-30T15:46:41.352Z,98697.52
2023-01-30T15:49:36.715Z,98695.73
2023-01-30T15:52:07.073Z,98691.23
2023-01-30T15:54:35.934Z,98690.05
2023-01-30T15:57:04.257Z,98690.66
2023-01-30T15:59:38.507Z,98690.30
2023-01-30T16:02:25.276Z,98688.48
2023-01-30T16:05:07.385Z,98681.55
2023-01-30T16:07:35.612Z,98692.38
2023-01-30T16:10:10.734Z,98687.63
2023-01-30T16:12:41.033Z,98685.00
2023-01-30T16:15:20.068Z,98692.95
2023-01-30T16:17:55.506Z,98689.05
2023-01-30T16:20:23.940Z,98686.98
2023-01-30T16:22:52.654Z,98686.48
2023-01-30T16:25:23.313Z,98690.83
2023-01-30T16:27:53.121Z,98689.71
2023-01-30T16:30:23.768Z,98690.05
2023-01-30T16:32:55.252Z,98687.02
2023-01-30T16:35:26.899Z,98677.85
2023-01-30T16:37:58.987Z,98675.04
2023-01-30T16:40:33.304Z,98677.64
2023-01-30T16:43:03.304Z,98676.13
2023-01-30T16:45:34.512Z,98672.70
2023-01-30T16:48:33.133Z,98666.99
2023-01-30T16:51:04.864Z,98666.95
2023-01-30T16:54:05.163Z,98671.36
2023-01-30T16:56:33.852Z,98668.55
2023-01-30T16:59:01.961Z,98671.04
2023-01-30T17:01:38.597Z,98669.89
2023-01-30T17:04:08.049Z,98665.94
2023-01-30T17:06:40.301Z,98661.09
2023-01-30T17:09:36.322Z,98659.74
2023-01-30T17:12:38.423Z,98657.43
2023-01-30T17:15:11.773Z,98657.26
2023-01-30T17:17:40.925Z,98659.17
2023-01-30T17:20:13.010Z,98658.59
2023-01-30T17:22:40.987Z,98656.23
2023-01-30T17:25:19.161Z,98651.73
2023-01-30T17:27:47.599Z,98655.81
2023-01-30T17:30:16.214Z,98650.02
2023-01-30T17:32:44.216Z,98655.04
2023-01-30T17:35:12.455Z,98645.87
2023-01-30T17:37:42.182Z,98647.73
2023-01-30T17:40:17.458Z,98633.73
2023-01-30T17:42:49.016Z,98632.42
2023-01-30T17:45:17.243Z,98634.34
2023-01-30T17:47:45.494Z,98638.35
2023-01-30T17:50:13.996Z,98638.48
2023-01-30T17:52:46.288Z,98635.48
2023-01-30T22:12:32.575Z,98566.38
2023-01-30T22:15:01.585Z,98568.70
2023-01-30T22:17:29.750Z,98563.77
2023-01-30T22:19:58.435Z,98561.71
2023-01-30T22:22:26.524Z,98553.98
2023-01-30T22:24:54.907Z,98553.98
2023-01-30T22:27:23.148Z,98556.84
2023-01-30T22:29:51.923Z,98558.75
2023-01-30T22:32:23.815Z,98566.75
2023-01-30T22:34:52.574Z,98574.84
2023-01-30T22:37:20.668Z,98566.15
2023-01-30T22:39:49.432Z,98566.72
2023-01-30T22:42:17.368Z,98558.63
2023-01-30T22:44:45.892Z,98554.41
2023-01-30T22:47:14.175Z,98552.83
2023-01-30T22:49:45.312Z,98551.90
2023-01-30T22:52:13.292Z,98559.61
2023-01-30T22:54:41.541Z,98555.95
2023-01-30T22:57:09.903Z,98549.70
2023-01-30T22:59:38.206Z,98556.44
2023-01-30T23:02:10.304Z,98559.11
2023-01-30T23:04:39.105Z,98557.17
2023-01-30T23:07:07.475Z,98561.34
2023-01-30T23:09:35.676Z,98558.10
2023-01-30T23:12:24.166Z,98553.36
2023-01-30T23:14:52.463Z,98552.55
2023-01-30T23:17:39.479Z,98553.48
2023-01-30T23:20:08.692Z,98548.90
2023-01-30T23:22:37.183Z,98546.77
2023-01-30T23:25:05.312Z,98552.84
2023-01-30T23:27:33.661Z,98552.88
2023-01-30T23:30:01.647Z,98546.90
2023-01-30T23:32:31.456Z,98545.81
2023-01-30T23:34:59.399Z,98542.03
2023-01-30T23:37:47.333Z,98537.64
2023-01-30T23:40:15.619Z,98538.70
2023-01-30T23:42:43.985Z,98541.52
2023-01-30T23:45:12.318Z,98544.98
2023-01-30T23:47:40.748Z,98546.86
